sensor_id;sensor_type;location;lat;lon;timestamp;P1;durP1;ratioP1;P2;durP2;ratioP2
18818;SDS011;9537;45.594;9.294;2022-08-19T00:00:45;3.03;;;1.65;;
18818;SDS011;9537;45.594;9.294;2022-08-19T00:01:48;1.92;;;1.55;;
18818;SDS011;9537;45.594;9.294;2022-08-19T00:02:50;2.45;;;1.55;;
18818;SDS011;9537;45.594;9.294;2022-08-19T00:03:53;2.10;;;1.52;;
18818;SDS011;9537;45.594;9.294;2022-08-19T00:04:54;3.58;;;1.70;;
18818;SDS011;9537;45.594;9.294;2022-08-19T00:05:56;3.85;;;1.73;;
18818;SDS011;9537;45.594;9.294;2022-08-19T00:06:57;3.95;;;1.60;;
18818;SDS011;9537;45.594;9.294;2022-08-19T00:08:00;3.80;;;1.80;;
18818;SDS011;9537;45.594;9.294;2022-08-19T00:09:02;2.92;;;1.60;;
18818;SDS011;9537;45.594;9.294;2022-08-19T00:10:05;2.13;;;1.50;;
18818;SDS011;9537;45.594;9.294;2022-08-19T00:11:07;2.35;;;1.50;;
18818;SDS011;9537;45.594;9.294;2022-08-19T00:12:09;3.83;;;2.00;;
18818;SDS011;9537;45.594;9.294;2022-08-19T00:13:12;3.28;;;1.45;;
18818;SDS011;9537;45.594;9.294;2022-08-19T00:14:15;4.10;;;1.40;;
18818;SDS011;9537;45.594;9.294;2022-08-19T00:15:19;2.35;;;1.50;;
18818;SDS011;9537;45.594;9.294;2022-08-19T00:16:22;2.83;;;1.38;;
18818;SDS011;9537;45.594;9.294;2022-08-19T00:17:24;3.33;;;1.98;;
18818;SDS011;9537;45.594;9.294;2022-08-19T00:18:27;3.35;;;1.63;;
18818;SDS011;9537;45.594;9.294;2022-08-19T00:19:28;2.13;;;1.50;;
18818;SDS011;9537;45.594;9.294;2022-08-19T00:20:30;2.40;;;1.70;;
18818;SDS011;9537;45.594;9.294;2022-08-19T00:21:31;4.95;;;1.70;;
18818;SDS011;9537;45.594;9.294;2022-08-19T00:22:39;3.08;;;1.48;;
18818;SDS011;9537;45.594;9.294;2022-08-19T00:23:41;4.85;;;1.90;;
18818;SDS011;9537;45.594;9.294;2022-08-19T00:24:44;5.57;;;1.80;;
18818;SDS011;9537;45.594;9.294;2022-08-19T00:25:45;5.63;;;1.67;;
18818;SDS011;9537;45.594;9.294;2022-08-19T00:26:47;6.57;;;1.73;;
18818;SDS011;9537;45.594;9.294;2022-08-19T00:27:49;2.47;;;1.63;;
18818;SDS011;9537;45.594;9.294;2022-08-19T00:28:52;4.72;;;1.85;;
18818;SDS011;9537;45.594;9.294;2022-08-19T00:29:54;4.47;;;1.70;;
18818;SDS011;9537;45.594;9.294;2022-08-19T00:30:56;1.70;;;1.60;;
18818;SDS011;9537;45.594;9.294;2022-08-19T00:31:57;3.33;;;1.60;;
18818;SDS011;9537;45.594;9.294;2022-08-19T00:33:00;2.25;;;1.63;;
18818;SDS011;9537;45.594;9.294;2022-08-19T00:34:01;2.50;;;1.67;;
18818;SDS011;9537;45.594;9.294;2022-08-19T00:35:04;3.05;;;1.38;;
18818;SDS011;9537;45.594;9.294;2022-08-19T00:36:07;2.45;;;1.42;;
18818;SDS011;9537;45.594;9.294;2022-08-19T00:37:09;3.97;;;1.60;;
18818;SDS011;9537;45.594;9.294;2022-08-19T00:38:10;3.33;;;1.40;;
18818;SDS011;9537;45.594;9.294;2022-08-19T00:39:12;3.63;;;1.70;;
18818;SDS011;9537;45.594;9.294;2022-08-19T00:40:15;2.97;;;1.60;;
18818;SDS011;9537;45.594;9.294;2022-08-19T00:41:20;3.08;;;2.22;;
18818;SDS011;9537;45.594;9.294;2022-08-19T00:42:23;2.78;;;1.65;;
18818;SDS011;9537;45.594;9.294;2022-08-19T00:43:28;3.03;;;1.40;;
18818;SDS011;9537;45.594;9.294;2022-08-19T00:44:30;3.45;;;2.00;;
18818;SDS011;9537;45.594;9.294;2022-08-19T00:45:33;4.25;;;1.58;;
18818;SDS011;9537;45.594;9.294;2022-08-19T00:46:35;4.35;;;1.60;;
18818;SDS011;9537;45.594;9.294;2022-08-19T00:47:38;3.10;;;1.42;;
18818;SDS011;9537;45.594;9.294;2022-08-19T00:48:39;3.88;;;1.90;;
18818;SDS011;9537;45.594;9.294;2022-08-19T00:49:43;2.15;;;1.63;;
18818;SDS011;9537;45.594;9.294;2022-08-19T00:50:51;3.92;;;1.88;;
18818;SDS011;9537;45.594;9.294;2022-08-19T00:51:57;3.13;;;1.75;;
18818;SDS011;9537;45.594;9.294;2022-08-19T00:53:02;2.13;;;1.40;;
18818;SDS011;9537;45.594;9.294;2022-08-19T00:54:05;3.03;;;1.80;;
18818;SDS011;9537;45.594;9.294;2022-08-19T00:55:07;4.65;;;1.77;;
18818;SDS011;9537;45.594;9.294;2022-08-19T00:56:12;2.20;;;1.60;;
18818;SDS011;9537;45.594;9.294;2022-08-19T00:57:14;3.97;;;1.70;;
18818;SDS011;9537;45.594;9.294;2022-08-19T00:58:19;3.22;;;1.58;;
18818;SDS011;9537;45.594;9.294;2022-08-19T00:59:22;2.53;;;2.00;;
18818;SDS011;9537;45.594;9.294;2022-08-19T01:00:27;3.55;;;1.48;;
18818;SDS011;9537;45.594;9.294;2022-08-19T01:01:29;5.13;;;1.75;;
18818;SDS011;9537;45.594;9.294;2022-08-19T01:02:31;3.08;;;1.73;;
18818;SDS011;9537;45.594;9.294;2022-08-19T01:03:33;3.40;;;1.80;;
18818;SDS011;9537;45.594;9.294;2022-08-19T01:04:35;3.50;;;1.85;;
18818;SDS011;9537;45.594;9.294;2022-08-19T01:05:36;5.47;;;1.42;;
18818;SDS011;9537;45.594;9.294;2022-08-19T01:06:39;2.65;;;1.60;;
18818;SDS011;9537;45.594;9.294;2022-08-19T01:07:41;3.85;;;2.08;;
18818;SDS011;9537;45.594;9.294;2022-08-19T01:08:43;4.88;;;1.70;;
18818;SDS011;9537;45.594;9.294;2022-08-19T01:09:45;3.38;;;1.75;;
18818;SDS011;9537;45.594;9.294;2022-08-19T01:10:48;3.67;;;1.58;;
18818;SDS011;9537;45.594;9.294;2022-08-19T01:11:52;3.97;;;1.60;;
18818;SDS011;9537;45.594;9.294;2022-08-19T01:12:55;3.60;;;1.65;;
18818;SDS011;9537;45.594;9.294;2022-08-19T01:13:59;2.15;;;1.58;;
18818;SDS011;9537;45.594;9.294;2022-08-19T01:15:04;4.18;;;1.75;;
18818;SDS011;9537;45.594;9.294;2022-08-19T01:16:09;3.08;;;1.58;;
18818;SDS011;9537;45.594;9.294;2022-08-19T01:17:12;3.92;;;1.60;;
18818;SDS011;9537;45.594;9.294;2022-08-19T01:18:16;2.90;;;1.55;;
18818;SDS011;9537;45.594;9.294;2022-08-19T01:19:23;2.55;;;1.52;;
18818;SDS011;9537;45.594;9.294;2022-08-19T01:20:27;2.65;;;1.83;;
18818;SDS011;9537;45.594;9.294;2022-08-19T01:21:30;2.53;;;1.70;;
18818;SDS011;9537;45.594;9.294;2022-08-19T01:22:36;3.45;;;1.70;;
18818;SDS011;9537;45.594;9.294;2022-08-19T01:23:43;3.28;;;1.85;;
18818;SDS011;9537;45.594;9.294;2022-08-19T01:24:44;4.70;;;1.80;;
18818;SDS011;9537;45.594;9.294;2022-08-19T01:25:48;3.78;;;1.85;;
18818;SDS011;9537;45.594;9.294;2022-08-19T01:26:51;4.80;;;1.55;;
18818;SDS011;9537;45.594;9.294;2022-08-19T01:27:53;3.60;;;1.70;;
18818;SDS011;9537;45.594;9.294;2022-08-19T01:28:56;2.63;;;1.85;;
18818;SDS011;9537;45.594;9.294;2022-08-19T01:30:01;5.45;;;1.90;;
18818;SDS011;9537;45.594;9.294;2022-08-19T01:31:02;5.20;;;1.60;;
18818;SDS011;9537;45.594;9.294;2022-08-19T01:32:04;2.13;;;1.77;;
18818;SDS011;9537;45.594;9.294;2022-08-19T01:33:06;3.58;;;2.00;;
18818;SDS011;9537;45.594;9.294;2022-08-19T01:34:08;6.55;;;2.47;;
18818;SDS011;9537;45.594;9.294;2022-08-19T01:35:09;6.50;;;2.15;;
18818;SDS011;9537;45.594;9.294;2022-08-19T01:36:13;4.43;;;1.55;;
18818;SDS011;9537;45.594;9.294;2022-08-19T01:37:16;1.77;;;1.60;;
18818;SDS011;9537;45.594;9.294;2022-08-19T01:38:22;3.28;;;1.73;;
18818;SDS011;9537;45.594;9.294;2022-08-19T01:39:24;2.45;;;1.70;;
18818;SDS011;9537;45.594;9.294;2022-08-19T01:40:29;2.17;;;1.55;;
18818;SDS011;9537;45.594;9.294;2022-08-19T01:41:31;2.47;;;1.95;;
18818;SDS011;9537;45.594;9.294;2022-08-19T01:42:34;3.78;;;1.90;;
18818;SDS011;9537;45.594;9.294;2022-08-19T01:43:35;4.45;;;1.70;;
18818;SDS011;9537;45.594;9.294;2022-08-19T01:44:38;2.58;;;1.83;;
18818;SDS011;9537;45.594;9.294;2022-08-19T01:45:41;2.70;;;1.80;;
18818;SDS011;9537;45.594;9.294;2022-08-19T01:46:43;3.50;;;1.60;;
18818;SDS011;9537;45.594;9.294;2022-08-19T01:47:46;2.85;;;1.65;;
18818;SDS011;9537;45.594;9.294;2022-08-19T01:48:48;5.18;;;2.00;;
18818;SDS011;9537;45.594;9.294;2022-08-19T01:49:49;3.33;;;2.00;;
18818;SDS011;9537;45.594;9.294;2022-08-19T01:50:51;4.38;;;1.70;;
18818;SDS011;9537;45.594;9.294;2022-08-19T01:51:52;4.75;;;2.05;;
18818;SDS011;9537;45.594;9.294;2022-08-19T01:52:55;5.15;;;2.00;;
18818;SDS011;9537;45.594;9.294;2022-08-19T01:53:58;4.38;;;1.85;;
18818;SDS011;9537;45.594;9.294;2022-08-19T01:55:00;6.88;;;2.13;;
18818;SDS011;9537;45.594;9.294;2022-08-19T01:56:01;5.80;;;2.28;;
18818;SDS011;9537;45.594;9.294;2022-08-19T01:57:05;5.22;;;1.90;;
18818;SDS011;9537;45.594;9.294;2022-08-19T01:58:15;2.35;;;1.80;;
18818;SDS011;9537;45.594;9.294;2022-08-19T01:59:21;2.47;;;1.85;;
18818;SDS011;9537;45.594;9.294;2022-08-19T02:00:25;3.63;;;2.30;;
18818;SDS011;9537;45.594;9.294;2022-08-19T02:01:28;4.60;;;1.98;;
18818;SDS011;9537;45.594;9.294;2022-08-19T02:02:32;6.00;;;2.47;;
18818;SDS011;9537;45.594;9.294;2022-08-19T02:03:34;6.97;;;1.95;;
18818;SDS011;9537;45.594;9.294;2022-08-19T02:04:35;5.28;;;1.90;;
18818;SDS011;9537;45.594;9.294;2022-08-19T02:05:38;2.40;;;1.90;;
18818;SDS011;9537;45.594;9.294;2022-08-19T02:06:40;3.05;;;1.38;;
18818;SDS011;9537;45.594;9.294;2022-08-19T02:07:42;3.47;;;1.80;;
18818;SDS011;9537;45.594;9.294;2022-08-19T02:08:44;3.95;;;1.70;;
18818;SDS011;9537;45.594;9.294;2022-08-19T02:09:49;4.15;;;1.92;;
18818;SDS011;9537;45.594;9.294;2022-08-19T02:10:50;7.30;;;1.80;;
18818;SDS011;9537;45.594;9.294;2022-08-19T02:11:52;2.55;;;1.52;;
18818;SDS011;9537;45.594;9.294;2022-08-19T02:12:53;3.45;;;1.80;;
18818;SDS011;9537;45.594;9.294;2022-08-19T02:13:55;3.45;;;1.60;;
18818;SDS011;9537;45.594;9.294;2022-08-19T02:14:56;3.67;;;1.65;;
18818;SDS011;9537;45.594;9.294;2022-08-19T02:15:58;5.13;;;1.83;;
18818;SDS011;9537;45.594;9.294;2022-08-19T02:16:59;2.83;;;1.70;;
18818;SDS011;9537;45.594;9.294;2022-08-19T02:18:01;3.50;;;1.40;;
18818;SDS011;9537;45.594;9.294;2022-08-19T02:19:02;5.43;;;1.67;;
18818;SDS011;9537;45.594;9.294;2022-08-19T02:20:05;2.42;;;1.50;;
18818;SDS011;9537;45.594;9.294;2022-08-19T02:21:07;3.70;;;1.83;;
18818;SDS011;9537;45.594;9.294;2022-08-19T02:22:09;3.85;;;1.60;;
18818;SDS011;9537;45.594;9.294;2022-08-19T02:23:10;2.47;;;2.00;;
18818;SDS011;9537;45.594;9.294;2022-08-19T02:24:13;3.65;;;2.20;;
18818;SDS011;9537;45.594;9.294;2022-08-19T02:25:16;2.70;;;1.88;;
18818;SDS011;9537;45.594;9.294;2022-08-19T02:26:18;4.70;;;1.90;;
18818;SDS011;9537;45.594;9.294;2022-08-19T02:27:19;2.92;;;1.70;;
18818;SDS011;9537;45.594;9.294;2022-08-19T02:28:21;2.33;;;2.00;;
18818;SDS011;9537;45.594;9.294;2022-08-19T02:29:22;3.55;;;2.00;;
18818;SDS011;9537;45.594;9.294;2022-08-19T02:30:24;4.50;;;1.90;;
18818;SDS011;9537;45.594;9.294;2022-08-19T02:31:26;2.88;;;1.98;;
18818;SDS011;9537;45.594;9.294;2022-08-19T02:32:28;3.08;;;1.80;;
18818;SDS011;9537;45.594;9.294;2022-08-19T02:33:30;4.75;;;1.85;;
18818;SDS011;9537;45.594;9.294;2022-08-19T02:34:32;3.50;;;1.90;;
18818;SDS011;9537;45.594;9.294;2022-08-19T02:35:34;5.97;;;1.90;;
18818;SDS011;9537;45.594;9.294;2022-08-19T02:36:37;4.65;;;1.90;;
18818;SDS011;9537;45.594;9.294;2022-08-19T02:37:38;4.00;;;1.73;;
18818;SDS011;9537;45.594;9.294;2022-08-19T02:38:57;2.97;;;1.60;;
18818;SDS011;9537;45.594;9.294;2022-08-19T02:39:59;4.80;;;1.80;;
18818;SDS011;9537;45.594;9.294;2022-08-19T02:41:03;3.63;;;1.80;;
18818;SDS011;9537;45.594;9.294;2022-08-19T02:42:13;3.65;;;1.80;;
18818;SDS011;9537;45.594;9.294;2022-08-19T02:43:14;6.32;;;2.45;;
18818;SDS011;9537;45.594;9.294;2022-08-19T02:44:16;3.97;;;1.83;;
18818;SDS011;9537;45.594;9.294;2022-08-19T02:45:18;5.35;;;1.70;;
18818;SDS011;9537;45.594;9.294;2022-08-19T02:46:20;5.68;;;2.00;;
18818;SDS011;9537;45.594;9.294;2022-08-19T02:47:23;3.80;;;1.75;;
18818;SDS011;9537;45.594;9.294;2022-08-19T02:48:25;4.88;;;2.20;;
18818;SDS011;9537;45.594;9.294;2022-08-19T02:49:27;3.42;;;1.75;;
18818;SDS011;9537;45.594;9.294;2022-08-19T02:50:28;3.33;;;1.77;;
18818;SDS011;9537;45.594;9.294;2022-08-19T02:51:31;4.68;;;1.83;;
18818;SDS011;9537;45.594;9.294;2022-08-19T02:52:34;3.78;;;1.90;;
18818;SDS011;9537;45.594;9.294;2022-08-19T02:53:36;4.47;;;1.90;;
18818;SDS011;9537;45.594;9.294;2022-08-19T02:54:37;4.32;;;1.80;;
18818;SDS011;9537;45.594;9.294;2022-08-19T02:55:42;7.63;;;1.85;;
18818;SDS011;9537;45.594;9.294;2022-08-19T02:56:46;3.45;;;1.90;;
18818;SDS011;9537;45.594;9.294;2022-08-19T02:57:48;3.13;;;1.80;;
18818;SDS011;9537;45.594;9.294;2022-08-19T02:58:49;3.75;;;2.00;;
18818;SDS011;9537;45.594;9.294;2022-08-19T02:59:51;4.00;;;1.95;;
18818;SDS011;9537;45.594;9.294;2022-08-19T03:00:54;4.22;;;2.00;;
18818;SDS011;9537;45.594;9.294;2022-08-19T03:01:57;4.63;;;2.03;;
18818;SDS011;9537;45.594;9.294;2022-08-19T03:02:58;2.30;;;2.08;;
18818;SDS011;9537;45.594;9.294;2022-08-19T03:04:01;2.15;;;1.50;;
18818;SDS011;9537;45.594;9.294;2022-08-19T03:05:05;1.80;;;1.70;;
18818;SDS011;9537;45.594;9.294;2022-08-19T03:06:10;2.42;;;1.90;;
18818;SDS011;9537;45.594;9.294;2022-08-19T03:07:13;3.78;;;1.92;;
18818;SDS011;9537;45.594;9.294;2022-08-19T03:08:15;5.95;;;2.30;;
18818;SDS011;9537;45.594;9.294;2022-08-19T03:09:17;4.50;;;2.25;;
18818;SDS011;9537;45.594;9.294;2022-08-19T03:10:20;5.60;;;2.00;;
18818;SDS011;9537;45.594;9.294;2022-08-19T03:11:21;5.25;;;2.03;;
18818;SDS011;9537;45.594;9.294;2022-08-19T03:12:26;3.60;;;1.95;;
18818;SDS011;9537;45.594;9.294;2022-08-19T03:13:27;2.92;;;1.92;;
18818;SDS011;9537;45.594;9.294;2022-08-19T03:14:30;6.20;;;2.00;;
18818;SDS011;9537;45.594;9.294;2022-08-19T03:15:31;4.10;;;2.10;;
18818;SDS011;9537;45.594;9.294;2022-08-19T03:16:34;6.05;;;2.08;;
18818;SDS011;9537;45.594;9.294;2022-08-19T03:17:42;2.42;;;2.00;;
18818;SDS011;9537;45.594;9.294;2022-08-19T03:18:44;6.55;;;2.03;;
18818;SDS011;9537;45.594;9.294;2022-08-19T03:19:45;5.25;;;2.10;;
18818;SDS011;9537;45.594;9.294;2022-08-19T03:20:48;4.25;;;1.70;;
18818;SDS011;9537;45.594;9.294;2022-08-19T03:21:51;2.72;;;1.80;;
18818;SDS011;9537;45.594;9.294;2022-08-19T03:22:53;3.40;;;1.83;;
18818;SDS011;9537;45.594;9.294;2022-08-19T03:23:54;1.83;;;1.55;;
18818;SDS011;9537;45.594;9.294;2022-08-19T03:24:57;2.55;;;2.08;;
18818;SDS011;9537;45.594;9.294;2022-08-19T03:26:02;3.78;;;2.05;;
18818;SDS011;9537;45.594;9.294;2022-08-19T03:27:05;2.72;;;1.70;;
18818;SDS011;9537;45.594;9.294;2022-08-19T03:28:07;3.08;;;1.83;;
18818;SDS011;9537;45.594;9.294;2022-08-19T03:29:10;5.70;;;1.88;;
18818;SDS011;9537;45.594;9.294;2022-08-19T03:30:12;2.90;;;1.73;;
18818;SDS011;9537;45.594;9.294;2022-08-19T03:31:16;3.17;;;1.98;;
18818;SDS011;9537;45.594;9.294;2022-08-19T03:32:19;3.07;;;1.90;;
18818;SDS011;9537;45.594;9.294;2022-08-19T03:33:22;2.35;;;1.65;;
18818;SDS011;9537;45.594;9.294;2022-08-19T03:34:24;3.35;;;2.25;;
18818;SDS011;9537;45.594;9.294;2022-08-19T03:35:28;2.05;;;1.50;;
18818;SDS011;9537;45.594;9.294;2022-08-19T03:36:29;5.88;;;1.80;;
18818;SDS011;9537;45.594;9.294;2022-08-19T03:37:31;4.47;;;1.90;;
18818;SDS011;9537;45.594;9.294;2022-08-19T03:38:32;5.63;;;1.92;;
18818;SDS011;9537;45.594;9.294;2022-08-19T03:39:35;3.03;;;1.80;;
18818;SDS011;9537;45.594;9.294;2022-08-19T03:40:38;3.65;;;1.70;;
18818;SDS011;9537;45.594;9.294;2022-08-19T03:41:41;4.17;;;2.23;;
18818;SDS011;9537;45.594;9.294;2022-08-19T03:42:44;3.10;;;1.65;;
18818;SDS011;9537;45.594;9.294;2022-08-19T03:43:47;2.22;;;1.80;;
18818;SDS011;9537;45.594;9.294;2022-08-19T03:44:49;6.00;;;1.80;;
18818;SDS011;9537;45.594;9.294;2022-08-19T03:45:59;3.95;;;1.80;;
18818;SDS011;9537;45.594;9.294;2022-08-19T03:47:00;3.10;;;1.70;;
18818;SDS011;9537;45.594;9.294;2022-08-19T03:48:02;2.53;;;1.80;;
18818;SDS011;9537;45.594;9.294;2022-08-19T03:49:03;1.88;;;1.70;;
18818;SDS011;9537;45.594;9.294;2022-08-19T03:50:07;2.00;;;1.77;;
18818;SDS011;9537;45.594;9.294;2022-08-19T03:51:15;4.65;;;1.90;;
18818;SDS011;9537;45.594;9.294;2022-08-19T03:52:18;4.32;;;2.03;;
18818;SDS011;9537;45.594;9.294;2022-08-19T03:53:20;4.95;;;2.05;;
18818;SDS011;9537;45.594;9.294;2022-08-19T03:54:22;3.33;;;2.08;;
18818;SDS011;9537;45.594;9.294;2022-08-19T03:55:25;5.38;;;1.92;;
18818;SDS011;9537;45.594;9.294;2022-08-19T03:56:26;4.65;;;1.90;;
18818;SDS011;9537;45.594;9.294;2022-08-19T03:57:29;3.53;;;1.60;;
18818;SDS011;9537;45.594;9.294;2022-08-19T03:58:30;2.92;;;1.95;;
18818;SDS011;9537;45.594;9.294;2022-08-19T03:59:34;2.00;;;1.80;;
18818;SDS011;9537;45.594;9.294;2022-08-19T04:00:36;3.17;;;1.60;;
18818;SDS011;9537;45.594;9.294;2022-08-19T04:01:38;3.58;;;1.80;;
18818;SDS011;9537;45.594;9.294;2022-08-19T04:02:40;4.30;;;1.70;;
18818;SDS011;9537;45.594;9.294;2022-08-19T04:03:42;4.50;;;2.10;;
18818;SDS011;9537;45.594;9.294;2022-08-19T04:04:43;1.90;;;1.80;;
18818;SDS011;9537;45.594;9.294;2022-08-19T04:05:45;5.93;;;1.85;;
18818;SDS011;9537;45.594;9.294;2022-08-19T04:06:47;4.50;;;1.90;;
18818;SDS011;9537;45.594;9.294;2022-08-19T04:07:50;3.88;;;1.85;;
18818;SDS011;9537;45.594;9.294;2022-08-19T04:08:52;4.85;;;2.03;;
18818;SDS011;9537;45.594;9.294;2022-08-19T04:09:56;5.03;;;1.92;;
18818;SDS011;9537;45.594;9.294;2022-08-19T04:10:58;2.95;;;2.08;;
18818;SDS011;9537;45.594;9.294;2022-08-19T04:11:59;5.65;;;2.22;;
18818;SDS011;9537;45.594;9.294;2022-08-19T04:13:01;3.80;;;2.08;;
18818;SDS011;9537;45.594;9.294;2022-08-19T04:14:02;4.47;;;1.88;;
18818;SDS011;9537;45.594;9.294;2022-08-19T04:15:07;3.33;;;2.30;;
18818;SDS011;9537;45.594;9.294;2022-08-19T04:16:09;2.22;;;2.00;;
18818;SDS011;9537;45.594;9.294;2022-08-19T04:17:12;4.75;;;1.75;;
18818;SDS011;9537;45.594;9.294;2022-08-19T04:18:14;2.00;;;1.80;;
18818;SDS011;9537;45.594;9.294;2022-08-19T04:19:16;2.28;;;1.70;;
18818;SDS011;9537;45.594;9.294;2022-08-19T04:20:18;4.35;;;1.80;;
18818;SDS011;9537;45.594;9.294;2022-08-19T04:21:20;5.53;;;2.17;;
18818;SDS011;9537;45.594;9.294;2022-08-19T04:22:24;3.05;;;2.08;;
18818;SDS011;9537;45.594;9.294;2022-08-19T04:23:26;2.97;;;1.80;;
18818;SDS011;9537;45.594;9.294;2022-08-19T04:24:28;6.93;;;2.05;;
18818;SDS011;9537;45.594;9.294;2022-08-19T04:25:34;5.20;;;2.45;;
18818;SDS011;9537;45.594;9.294;2022-08-19T04:26:36;3.20;;;2.10;;
18818;SDS011;9537;45.594;9.294;2022-08-19T04:27:39;4.38;;;2.03;;
18818;SDS011;9537;45.594;9.294;2022-08-19T04:28:43;3.63;;;2.05;;
18818;SDS011;9537;45.594;9.294;2022-08-19T04:29:45;3.83;;;2.08;;
18818;SDS011;9537;45.594;9.294;2022-08-19T04:30:50;4.22;;;1.80;;
18818;SDS011;9537;45.594;9.294;2022-08-19T04:31:54;4.38;;;2.17;;
18818;SDS011;9537;45.594;9.294;2022-08-19T04:32:57;3.67;;;2.47;;
18818;SDS011;9537;45.594;9.294;2022-08-19T04:33:58;2.95;;;2.00;;
18818;SDS011;9537;45.594;9.294;2022-08-19T04:35:01;3.65;;;1.83;;
18818;SDS011;9537;45.594;9.294;2022-08-19T04:36:03;2.22;;;2.00;;
18818;SDS011;9537;45.594;9.294;2022-08-19T04:37:05;5.18;;;3.05;;
18818;SDS011;9537;45.594;9.294;2022-08-19T04:38:12;4.78;;;2.92;;
18818;SDS011;9537;45.594;9.294;2022-08-19T04:39:15;3.97;;;2.90;;
18818;SDS011;9537;45.594;9.294;2022-08-19T04:40:19;3.92;;;2.85;;
18818;SDS011;9537;45.594;9.294;2022-08-19T04:41:38;7.28;;;3.20;;
18818;SDS011;9537;45.594;9.294;2022-08-19T04:42:58;3.53;;;2.53;;
18818;SDS011;9537;45.594;9.294;2022-08-19T04:44:01;4.05;;;2.60;;
18818;SDS011;9537;45.594;9.294;2022-08-19T04:45:02;2.90;;;2.05;;
18818;SDS011;9537;45.594;9.294;2022-08-19T04:46:07;6.68;;;2.20;;
18818;SDS011;9537;45.594;9.294;2022-08-19T04:47:10;3.47;;;2.42;;
18818;SDS011;9537;45.594;9.294;2022-08-19T04:48:12;5.85;;;2.20;;
18818;SDS011;9537;45.594;9.294;2022-08-19T04:49:17;4.93;;;2.05;;
18818;SDS011;9537;45.594;9.294;2022-08-19T04:50:28;4.07;;;2.28;;
18818;SDS011;9537;45.594;9.294;2022-08-19T04:51:29;4.65;;;2.20;;
18818;SDS011;9537;45.594;9.294;2022-08-19T04:52:31;5.35;;;2.35;;
18818;SDS011;9537;45.594;9.294;2022-08-19T04:53:33;2.97;;;2.00;;
18818;SDS011;9537;45.594;9.294;2022-08-19T04:54:36;4.80;;;2.13;;
18818;SDS011;9537;45.594;9.294;2022-08-19T04:55:39;3.10;;;2.28;;
18818;SDS011;9537;45.594;9.294;2022-08-19T04:56:42;3.20;;;2.20;;
18818;SDS011;9537;45.594;9.294;2022-08-19T04:57:44;2.45;;;2.10;;
18818;SDS011;9537;45.594;9.294;2022-08-19T04:58:46;4.57;;;2.10;;
18818;SDS011;9537;45.594;9.294;2022-08-19T04:59:47;3.60;;;2.03;;
18818;SDS011;9537;45.594;9.294;2022-08-19T05:00:50;4.72;;;2.45;;
18818;SDS011;9537;45.594;9.294;2022-08-19T05:01:52;5.28;;;2.25;;
18818;SDS011;9537;45.594;9.294;2022-08-19T05:02:56;5.13;;;2.35;;
18818;SDS011;9537;45.594;9.294;2022-08-19T05:03:57;3.15;;;2.28;;
18818;SDS011;9537;45.594;9.294;2022-08-19T05:05:00;2.40;;;1.90;;
18818;SDS011;9537;45.594;9.294;2022-08-19T05:06:03;2.05;;;1.83;;
18818;SDS011;9537;45.594;9.294;2022-08-19T05:07:07;3.63;;;2.13;;
18818;SDS011;9537;45.594;9.294;2022-08-19T05:08:10;2.67;;;1.95;;
18818;SDS011;9537;45.594;9.294;2022-08-19T05:09:12;4.45;;;2.28;;
18818;SDS011;9537;45.594;9.294;2022-08-19T05:10:14;2.50;;;2.05;;
18818;SDS011;9537;45.594;9.294;2022-08-19T05:11:17;3.50;;;2.60;;
18818;SDS011;9537;45.594;9.294;2022-08-19T05:12:20;4.20;;;2.03;;
18818;SDS011;9537;45.594;9.294;2022-08-19T05:13:22;4.40;;;2.33;;
18818;SDS011;9537;45.594;9.294;2022-08-19T05:14:23;2.35;;;1.88;;
18818;SDS011;9537;45.594;9.294;2022-08-19T05:15:25;3.22;;;2.25;;
18818;SDS011;9537;45.594;9.294;2022-08-19T05:16:27;4.38;;;2.08;;
18818;SDS011;9537;45.594;9.294;2022-08-19T05:17:30;5.70;;;2.50;;
18818;SDS011;9537;45.594;9.294;2022-08-19T05:18:31;4.85;;;2.13;;
18818;SDS011;9537;45.594;9.294;2022-08-19T05:19:50;2.50;;;2.17;;
18818;SDS011;9537;45.594;9.294;2022-08-19T05:21:19;4.63;;;2.30;;
18818;SDS011;9537;45.594;9.294;2022-08-19T05:22:39;5.68;;;2.50;;
18818;SDS011;9537;45.594;9.294;2022-08-19T05:23:41;5.68;;;2.40;;
18818;SDS011;9537;45.594;9.294;2022-08-19T05:24:42;3.80;;;2.38;;
18818;SDS011;9537;45.594;9.294;2022-08-19T05:25:44;4.60;;;2.50;;
18818;SDS011;9537;45.594;9.294;2022-08-19T05:26:46;4.88;;;2.58;;
18818;SDS011;9537;45.594;9.294;2022-08-19T05:27:49;4.75;;;2.40;;
18818;SDS011;9537;45.594;9.294;2022-08-19T05:28:51;3.80;;;2.45;;
18818;SDS011;9537;45.594;9.294;2022-08-19T05:29:52;3.42;;;2.70;;
18818;SDS011;9537;45.594;9.294;2022-08-19T05:30:54;3.85;;;2.72;;
18818;SDS011;9537;45.594;9.294;2022-08-19T05:31:55;3.63;;;2.50;;
18818;SDS011;9537;45.594;9.294;2022-08-19T05:32:59;4.30;;;3.03;;
18818;SDS011;9537;45.594;9.294;2022-08-19T05:34:00;4.22;;;2.63;;
18818;SDS011;9537;45.594;9.294;2022-08-19T05:35:02;3.15;;;2.50;;
18818;SDS011;9537;45.594;9.294;2022-08-19T05:36:05;4.60;;;2.85;;
18818;SDS011;9537;45.594;9.294;2022-08-19T05:37:07;6.75;;;2.72;;
18818;SDS011;9537;45.594;9.294;2022-08-19T05:38:09;5.75;;;2.85;;
18818;SDS011;9537;45.594;9.294;2022-08-19T05:39:13;5.30;;;2.80;;
18818;SDS011;9537;45.594;9.294;2022-08-19T05:40:17;3.95;;;2.38;;
18818;SDS011;9537;45.594;9.294;2022-08-19T05:41:19;3.40;;;2.65;;
18818;SDS011;9537;45.594;9.294;2022-08-19T05:42:21;3.95;;;2.85;;
18818;SDS011;9537;45.594;9.294;2022-08-19T05:43:23;6.97;;;2.95;;
18818;SDS011;9537;45.594;9.294;2022-08-19T05:44:26;3.92;;;2.47;;
18818;SDS011;9537;45.594;9.294;2022-08-19T05:45:31;3.10;;;2.60;;
18818;SDS011;9537;45.594;9.294;2022-08-19T05:46:33;4.78;;;2.75;;
18818;SDS011;9537;45.594;9.294;2022-08-19T05:47:35;3.42;;;2.33;;
18818;SDS011;9537;45.594;9.294;2022-08-19T05:48:38;4.00;;;2.60;;
18818;SDS011;9537;45.594;9.294;2022-08-19T05:49:40;3.50;;;2.58;;
18818;SDS011;9537;45.594;9.294;2022-08-19T05:50:42;4.78;;;2.40;;
18818;SDS011;9537;45.594;9.294;2022-08-19T05:51:45;3.58;;;2.53;;
18818;SDS011;9537;45.594;9.294;2022-08-19T05:52:47;4.70;;;2.38;;
18818;SDS011;9537;45.594;9.294;2022-08-19T05:53:49;3.10;;;2.25;;
18818;SDS011;9537;45.594;9.294;2022-08-19T05:54:50;3.17;;;2.10;;
18818;SDS011;9537;45.594;9.294;2022-08-19T05:55:52;3.35;;;2.10;;
18818;SDS011;9537;45.594;9.294;2022-08-19T05:56:53;2.80;;;2.22;;
18818;SDS011;9537;45.594;9.294;2022-08-19T05:57:55;4.40;;;2.40;;
18818;SDS011;9537;45.594;9.294;2022-08-19T05:58:57;5.05;;;2.03;;
18818;SDS011;9537;45.594;9.294;2022-08-19T05:59:59;2.42;;;2.08;;
18818;SDS011;9537;45.594;9.294;2022-08-19T06:01:02;4.10;;;2.00;;
18818;SDS011;9537;45.594;9.294;2022-08-19T06:02:06;4.90;;;2.20;;
18818;SDS011;9537;45.594;9.294;2022-08-19T06:03:07;5.75;;;2.30;;
18818;SDS011;9537;45.594;9.294;2022-08-19T06:04:12;3.08;;;2.33;;
18818;SDS011;9537;45.594;9.294;2022-08-19T06:05:14;4.13;;;2.50;;
18818;SDS011;9537;45.594;9.294;2022-08-19T06:06:16;3.17;;;2.30;;
18818;SDS011;9537;45.594;9.294;2022-08-19T06:07:17;2.63;;;2.25;;
18818;SDS011;9537;45.594;9.294;2022-08-19T06:08:19;2.95;;;2.00;;
18818;SDS011;9537;45.594;9.294;2022-08-19T06:09:21;5.25;;;2.17;;
18818;SDS011;9537;45.594;9.294;2022-08-19T06:10:24;2.47;;;2.08;;
18818;SDS011;9537;45.594;9.294;2022-08-19T06:11:31;2.85;;;2.15;;
18818;SDS011;9537;45.594;9.294;2022-08-19T06:12:35;6.50;;;2.33;;
18818;SDS011;9537;45.594;9.294;2022-08-19T06:13:37;2.80;;;2.40;;
18818;SDS011;9537;45.594;9.294;2022-08-19T06:14:38;4.63;;;2.17;;
18818;SDS011;9537;45.594;9.294;2022-08-19T06:15:41;2.80;;;1.83;;
18818;SDS011;9537;45.594;9.294;2022-08-19T06:16:44;2.15;;;1.80;;
18818;SDS011;9537;45.594;9.294;2022-08-19T06:17:47;2.65;;;2.20;;
18818;SDS011;9537;45.594;9.294;2022-08-19T06:18:49;4.43;;;2.20;;
18818;SDS011;9537;45.594;9.294;2022-08-19T06:19:54;5.10;;;2.45;;
18818;SDS011;9537;45.594;9.294;2022-08-19T06:20:55;5.68;;;1.95;;
18818;SDS011;9537;45.594;9.294;2022-08-19T06:21:57;4.55;;;2.92;;
18818;SDS011;9537;45.594;9.294;2022-08-19T06:23:00;6.35;;;3.28;;
18818;SDS011;9537;45.594;9.294;2022-08-19T06:24:02;6.80;;;2.95;;
18818;SDS011;9537;45.594;9.294;2022-08-19T06:25:05;5.55;;;2.70;;